sensor_id;sensor_type;location;lat;lon;timestamp;pressure;altitude;pressure_sealevel;temperature;humidity
17936;BME280;9093;52.062;4.508;2022-07-22T00:01:18;102529.81;;;18.12;73.06
17936;BME280;9093;52.062;4.508;2022-07-22T00:04:00;102527.91;;;18.14;73.01
17936;BME280;9093;52.062;4.508;2022-07-22T00:06:42;102528.78;;;18.15;73.01
17936;BME280;9093;52.062;4.508;2022-07-22T00:09:22;102528.88;;;18.13;72.92
17936;BME280;9093;52.062;4.508;2022-07-22T00:12:02;102526.16;;;18.13;72.81
17936;BME280;9093;52.062;4.508;2022-07-22T00:14:43;102529.63;;;18.15;72.88
17936;BME280;9093;52.062;4.508;2022-07-22T00:17:23;102523.25;;;18.16;72.91
17936;BME280;9093;52.062;4.508;2022-07-22T00:20:05;102518.81;;;18.15;73.01
17936;BME280;9093;52.062;4.508;2022-07-22T00:22:46;102523.38;;;18.15;72.88
17936;BME280;9093;52.062;4.508;2022-07-22T00:25:26;102525.19;;;18.14;73.06
17936;BME280;9093;52.062;4.508;2022-07-22T00:28:08;102527.03;;;18.14;72.66
17936;BME280;9093;52.062;4.508;2022-07-22T00:30:49;102522.50;;;18.14;72.97
17936;BME280;9093;52.062;4.508;2022-07-22T00:33:29;102518.81;;;18.15;73.00
17936;BME280;9093;52.062;4.508;2022-07-22T00:36:09;102517.09;;;18.14;72.74
17936;BME280;9093;52.062;4.508;2022-07-22T00:38:50;102522.50;;;18.14;72.70
17936;BME280;9093;52.062;4.508;2022-07-22T00:41:30;102512.63;;;18.13;72.34
17936;BME280;9093;52.062;4.508;2022-07-22T00:44:10;102508.19;;;18.12;72.47
17936;BME280;9093;52.062;4.508;2022-07-22T00:46:51;102512.81;;;18.10;72.29
17936;BME280;9093;52.062;4.508;2022-07-22T00:49:31;102504.78;;;18.08;72.22
17936;BME280;9093;52.062;4.508;2022-07-22T00:52:12;102501.03;;;18.11;72.48
17936;BME280;9093;52.062;4.508;2022-07-22T00:54:52;102505.56;;;18.11;72.66
17936;BME280;9093;52.062;4.508;2022-07-22T00:57:33;102507.41;;;18.10;72.33
17936;BME280;9093;52.062;4.508;2022-07-22T01:00:17;102502.00;;;18.10;72.55
17936;BME280;9093;52.062;4.508;2022-07-22T01:02:58;102502.00;;;18.10;72.78
17936;BME280;9093;52.062;4.508;2022-07-22T01:05:38;102501.13;;;18.09;72.42
17936;BME280;9093;52.062;4.508;2022-07-22T01:08:18;102501.22;;;18.08;72.10
17936;BME280;9093;52.062;4.508;2022-07-22T01:11:13;102495.03;;;18.06;72.35
17936;BME280;9093;52.062;4.508;2022-07-22T01:13:55;102490.41;;;18.08;72.11
17936;BME280;9093;52.062;4.508;2022-07-22T01:16:36;102495.81;;;18.08;72.39
17936;BME280;9093;52.062;4.508;2022-07-22T01:19:17;102491.25;;;18.08;72.08
17936;BME280;9093;52.062;4.508;2022-07-22T01:21:57;102487.81;;;18.06;72.04
17936;BME280;9093;52.062;4.508;2022-07-22T01:24:37;102492.34;;;18.06;71.93
17936;BME280;9093;52.062;4.508;2022-07-22T01:27:18;102489.63;;;18.06;72.09
17936;BME280;9093;52.062;4.508;2022-07-22T01:29:58;102487.81;;;18.06;72.06
17936;BME280;9093;52.062;4.508;2022-07-22T01:32:38;102488.69;;;18.07;71.75
17936;BME280;9093;52.062;4.508;2022-07-22T01:35:18;102488.75;;;18.05;71.72
17936;BME280;9093;52.062;4.508;2022-07-22T01:37:59;102490.50;;;18.06;71.99
17936;BME280;9093;52.062;4.508;2022-07-22T01:40:40;102484.22;;;18.06;71.75
17936;BME280;9093;52.062;4.508;2022-07-22T01:43:20;102481.53;;;18.06;72.01
17936;BME280;9093;52.062;4.508;2022-07-22T01:46:01;102486.94;;;18.06;71.90
17936;BME280;9093;52.062;4.508;2022-07-22T01:48:41;102484.22;;;18.06;71.60
17936;BME280;9093;52.062;4.508;2022-07-22T01:51:22;102496.00;;;18.05;71.36
17936;BME280;9093;52.062;4.508;2022-07-22T01:54:02;102491.47;;;18.05;71.58
17936;BME280;9093;52.062;4.508;2022-07-22T01:56:42;102490.59;;;18.05;71.55
17936;BME280;9093;52.062;4.508;2022-07-22T01:59:23;102486.06;;;18.05;71.43
17936;BME280;9093;52.062;4.508;2022-07-22T02:02:03;102479.78;;;18.05;71.94
17936;BME280;9093;52.062;4.508;2022-07-22T02:04:43;102474.38;;;18.05;71.90
17936;BME280;9093;52.062;4.508;2022-07-22T02:07:24;102482.56;;;18.03;71.67
17936;BME280;9093;52.062;4.508;2022-07-22T02:10:06;102479.09;;;18.01;71.58
17936;BME280;9093;52.062;4.508;2022-07-22T02:12:46;102478.22;;;18.01;71.45
17936;BME280;9093;52.062;4.508;2022-07-22T02:15:27;102477.16;;;18.03;71.72
17936;BME280;9093;52.062;4.508;2022-07-22T02:18:12;102476.47;;;18.00;71.51
17936;BME280;9093;52.062;4.508;2022-07-22T02:20:53;102479.19;;;18.00;71.34
17936;BME280;9093;52.062;4.508;2022-07-22T02:23:34;102473.78;;;18.00;71.45
17936;BME280;9093;52.062;4.508;2022-07-22T02:26:14;102477.34;;;18.00;71.52
17936;BME280;9093;52.062;4.508;2022-07-22T02:28:55;102474.56;;;18.02;71.49
17936;BME280;9093;52.062;4.508;2022-07-22T02:31:35;102468.28;;;18.01;71.69
17936;BME280;9093;52.062;4.508;2022-07-22T02:34:16;102464.72;;;18.01;71.74
17936;BME280;9093;52.062;4.508;2022-07-22T02:36:56;102463.75;;;18.02;71.77
17936;BME280;9093;52.062;4.508;2022-07-22T02:39:37;102469.25;;;18.00;71.58
17936;BME280;9093;52.062;4.508;2022-07-22T02:42:17;102462.97;;;18.00;71.69
17936;BME280;9093;52.062;4.508;2022-07-22T02:44:57;102469.31;;;17.99;71.50
17936;BME280;9093;52.062;4.508;2022-07-22T02:47:51;102456.78;;;17.98;71.69
17936;BME280;9093;52.062;4.508;2022-07-22T02:50:32;102454.06;;;17.98;71.74
17936;BME280;9093;52.062;4.508;2022-07-22T02:53:13;102459.38;;;17.99;72.24
17936;BME280;9093;52.062;4.508;2022-07-22T02:55:54;102458.53;;;17.99;72.05
17936;BME280;9093;52.062;4.508;2022-07-22T02:58:34;102454.84;;;18.00;71.88
17936;BME280;9093;52.062;4.508;2022-07-22T03:01:14;102460.25;;;18.00;71.83
17936;BME280;9093;52.062;4.508;2022-07-22T03:03:55;102453.13;;;17.99;72.05
17936;BME280;9093;52.062;4.508;2022-07-22T03:06:35;102454.84;;;18.00;72.06
17936;BME280;9093;52.062;4.508;2022-07-22T03:09:15;102454.84;;;18.00;72.09
17936;BME280;9093;52.062;4.508;2022-07-22T03:11:56;102451.19;;;18.01;71.99
17936;BME280;9093;52.062;4.508;2022-07-22T03:14:36;102462.00;;;18.01;71.97
17936;BME280;9093;52.062;4.508;2022-07-22T03:17:16;102456.59;;;18.01;72.11
17936;BME280;9093;52.062;4.508;2022-07-22T03:19:56;102461.13;;;18.00;72.13
17936;BME280;9093;52.062;4.508;2022-07-22T03:22:37;102457.56;;;18.00;72.22
17936;BME280;9093;52.062;4.508;2022-07-22T03:25:17;102460.25;;;18.00;72.15
17936;BME280;9093;52.062;4.508;2022-07-22T03:27:58;102458.53;;;17.99;72.17
17936;BME280;9093;52.062;4.508;2022-07-22T03:30:38;102464.78;;;17.99;72.18
17936;BME280;9093;52.062;4.508;2022-07-22T03:33:19;102459.47;;;17.98;72.31
17936;BME280;9093;52.062;4.508;2022-07-22T03:35:59;102458.53;;;17.99;72.20
17936;BME280;9093;52.062;4.508;2022-07-22T03:38:39;102458.53;;;17.99;72.35
17936;BME280;9093;52.062;4.508;2022-07-22T03:41:20;102458.53;;;17.99;72.23
17936;BME280;9093;52.062;4.508;2022-07-22T03:44:00;102453.13;;;17.99;72.13
17936;BME280;9093;52.062;4.508;2022-07-22T03:46:41;102458.53;;;17.99;71.98
17936;BME280;9093;52.062;4.508;2022-07-22T03:49:21;102454.00;;;17.99;72.07
17936;BME280;9093;52.062;4.508;2022-07-22T03:52:01;102450.41;;;17.99;72.11
17936;BME280;9093;52.062;4.508;2022-07-22T03:54:42;102454.84;;;18.00;72.39
17936;BME280;9093;52.062;4.508;2022-07-22T03:57:23;102454.00;;;17.99;72.11
17936;BME280;9093;52.062;4.508;2022-07-22T04:00:04;102454.84;;;18.00;72.19
17936;BME280;9093;52.062;4.508;2022-07-22T04:02:44;102460.19;;;18.01;72.12
17936;BME280;9093;52.062;4.508;2022-07-22T04:05:25;102466.53;;;18.00;72.04
17936;BME280;9093;52.062;4.508;2022-07-22T04:08:05;102463.84;;;18.00;72.02
17936;BME280;9093;52.062;4.508;2022-07-22T04:10:45;102472.81;;;18.01;72.27
17936;BME280;9093;52.062;4.508;2022-07-22T04:13:26;102466.47;;;18.02;72.29
17936;BME280;9093;52.062;4.508;2022-07-22T04:16:06;102471.75;;;18.03;72.32
17936;BME280;9093;52.062;4.508;2022-07-22T04:18:46;102470.88;;;18.03;72.15
17936;BME280;9093;52.062;4.508;2022-07-22T04:21:26;102469.91;;;18.04;72.65
17936;BME280;9093;52.062;4.508;2022-07-22T04:24:07;102461.81;;;18.04;72.58
17936;BME280;9093;52.062;4.508;2022-07-22T04:26:47;102463.56;;;18.05;72.37
17936;BME280;9093;52.062;4.508;2022-07-22T04:29:28;102458.06;;;18.06;72.19
17936;BME280;9093;52.062;4.508;2022-07-22T04:32:08;102460.69;;;18.08;72.32
17936;BME280;9093;52.062;4.508;2022-07-22T04:34:48;102459.69;;;18.09;72.31
17936;BME280;9093;52.062;4.508;2022-07-22T04:37:29;102460.50;;;18.11;72.54
17936;BME280;9093;52.062;4.508;2022-07-22T04:40:10;102452.38;;;18.11;72.28
17936;BME280;9093;52.062;4.508;2022-07-22T04:42:51;102454.13;;;18.12;72.04
17936;BME280;9093;52.062;4.508;2022-07-22T04:45:31;102447.69;;;18.15;72.47
17936;BME280;9093;52.062;4.508;2022-07-22T04:48:12;102451.13;;;18.17;72.07
17936;BME280;9093;52.062;4.508;2022-07-22T04:50:52;102454.72;;;18.17;71.90
17936;BME280;9093;52.062;4.508;2022-07-22T04:53:32;102456.25;;;18.21;71.95
17936;BME280;9093;52.062;4.508;2022-07-22T04:56:12;102451.72;;;18.22;72.00
17936;BME280;9093;52.062;4.508;2022-07-22T04:58:53;102458.78;;;18.24;71.78
17936;BME280;9093;52.062;4.508;2022-07-22T05:01:33;102456.00;;;18.26;71.39
17936;BME280;9093;52.062;4.508;2022-07-22T05:04:13;102454.94;;;18.28;71.67
17936;BME280;9093;52.062;4.508;2022-07-22T05:06:54;102455.81;;;18.29;71.41
17936;BME280;9093;52.062;4.508;2022-07-22T05:09:34;102461.13;;;18.30;71.39
17936;BME280;9093;52.062;4.508;2022-07-22T05:12:14;102451.19;;;18.31;71.19
17936;BME280;9093;52.062;4.508;2022-07-22T05:14:55;102459.97;;;18.34;71.13
17936;BME280;9093;52.062;4.508;2022-07-22T05:17:35;102454.38;;;18.37;71.17
17936;BME280;9093;52.062;4.508;2022-07-22T05:20:16;102455.91;;;18.41;71.31
17936;BME280;9093;52.062;4.508;2022-07-22T05:22:56;102454.97;;;18.42;71.18
17936;BME280;9093;52.062;4.508;2022-07-22T05:25:37;102453.13;;;18.43;70.98
17936;BME280;9093;52.062;4.508;2022-07-22T05:28:17;102452.16;;;18.44;71.05
17936;BME280;9093;52.062;4.508;2022-07-22T05:30:59;102449.38;;;18.45;71.17
17936;BME280;9093;52.062;4.508;2022-07-22T05:33:39;102456.63;;;18.45;71.20
17936;BME280;9093;52.062;4.508;2022-07-22T05:36:19;102452.97;;;18.46;70.96
17936;BME280;9093;52.062;4.508;2022-07-22T05:39:00;102459.03;;;18.49;71.02
17936;BME280;9093;52.062;4.508;2022-07-22T05:41:40;102460.78;;;18.51;70.81
17936;BME280;9093;52.062;4.508;2022-07-22T05:44:20;102459.63;;;18.55;70.84
17936;BME280;9093;52.062;4.508;2022-07-22T05:47:01;102460.44;;;18.57;70.88
17936;BME280;9093;52.062;4.508;2022-07-22T05:49:41;102457.66;;;18.58;70.97
17936;BME280;9093;52.062;4.508;2022-07-22T05:52:21;102459.34;;;18.59;71.00
17936;BME280;9093;52.062;4.508;2022-07-22T05:55:02;102454.66;;;18.63;70.75
17936;BME280;9093;52.062;4.508;2022-07-22T05:57:43;102450.84;;;18.65;70.88
17936;BME280;9093;52.062;4.508;2022-07-22T06:00:23;102456.00;;;18.70;70.61
17936;BME280;9093;52.062;4.508;2022-07-22T06:03:03;102458.50;;;18.73;70.92
17936;BME280;9093;52.062;4.508;2022-07-22T06:05:44;102455.63;;;18.76;71.25
17936;BME280;9093;52.062;4.508;2022-07-22T06:08:24;102443.72;;;18.78;70.99
17936;BME280;9093;52.062;4.508;2022-07-22T06:11:05;102455.25;;;18.82;70.70
17936;BME280;9093;52.062;4.508;2022-07-22T06:13:45;102453.31;;;18.84;70.36
17936;BME280;9093;52.062;4.508;2022-07-22T06:16:25;102449.53;;;18.86;70.42
17936;BME280;9093;52.062;4.508;2022-07-22T06:19:05;102447.69;;;18.87;70.42
17936;BME280;9093;52.062;4.508;2022-07-22T06:21:46;102444.03;;;18.88;70.64
17936;BME280;9093;52.062;4.508;2022-07-22T06:24:26;102435.81;;;18.90;70.43
17936;BME280;9093;52.062;4.508;2022-07-22T06:27:06;102437.44;;;18.92;70.42
17936;BME280;9093;52.062;4.508;2022-07-22T06:29:47;102440.84;;;18.96;70.12
17936;BME280;9093;52.062;4.508;2022-07-22T06:32:27;102447.78;;;19.00;70.13
17936;BME280;9093;52.062;4.508;2022-07-22T06:35:07;102454.84;;;19.02;70.22
17936;BME280;9093;52.062;4.508;2022-07-22T06:37:48;102455.50;;;19.06;70.16
17936;BME280;9093;52.062;4.508;2022-07-22T06:40:28;102458.91;;;19.09;70.22
17936;BME280;9093;52.062;4.508;2022-07-22T06:43:08;102465.84;;;19.13;70.33
17936;BME280;9093;52.062;4.508;2022-07-22T06:45:48;102463.94;;;19.15;70.18
17936;BME280;9093;52.062;4.508;2022-07-22T06:48:29;102458.41;;;19.17;70.18
17936;BME280;9093;52.062;4.508;2022-07-22T06:51:09;102454.41;;;19.22;70.16
17936;BME280;9093;52.062;4.508;2022-07-22T06:53:49;102453.66;;;19.20;69.95
17936;BME280;9093;52.062;4.508;2022-07-22T06:56:30;102456.16;;;19.23;70.05
17936;BME280;9093;52.062;4.508;2022-07-22T06:59:10;102456.72;;;19.28;70.20
17936;BME280;9093;52.062;4.508;2022-07-22T07:01:50;102452.09;;;19.31;69.77
17936;BME280;9093;52.062;4.508;2022-07-22T07:04:31;102457.31;;;19.34;69.85
17936;BME280;9093;52.062;4.508;2022-07-22T07:07:11;102455.38;;;19.36;69.93
17936;BME280;9093;52.062;4.508;2022-07-22T07:09:51;102456.91;;;19.40;69.72
17936;BME280;9093;52.062;4.508;2022-07-22T07:12:31;102454.97;;;19.42;70.20
17936;BME280;9093;52.062;4.508;2022-07-22T07:15:12;102463.00;;;19.43;69.64
17936;BME280;9093;52.062;4.508;2022-07-22T07:17:53;102472.97;;;19.43;69.85
17936;BME280;9093;52.062;4.508;2022-07-22T07:20:34;102463.09;;;19.42;69.50
17936;BME280;9093;52.062;4.508;2022-07-22T07:23:14;102466.47;;;19.45;69.63
17936;BME280;9093;52.062;4.508;2022-07-22T07:25:55;102462.84;;;19.46;69.72
17936;BME280;9093;52.062;4.508;2022-07-22T07:28:35;102465.63;;;19.45;69.67
17936;BME280;9093;52.062;4.508;2022-07-22T07:31:17;102459.25;;;19.46;69.66
17936;BME280;9093;52.062;4.508;2022-07-22T07:33:57;102458.34;;;19.45;69.22
17936;BME280;9093;52.062;4.508;2022-07-22T07:36:38;102461.97;;;19.46;69.83
17936;BME280;9093;52.062;4.508;2022-07-22T07:39:18;102461.00;;;19.47;69.52
17936;BME280;9093;52.062;4.508;2022-07-22T07:41:58;102458.06;;;19.50;69.23
17936;BME280;9093;52.062;4.508;2022-07-22T07:44:39;102468.72;;;19.53;69.17
17936;BME280;9093;52.062;4.508;2022-07-22T07:47:19;102465.03;;;19.54;68.70
17936;BME280;9093;52.062;4.508;2022-07-22T07:50:00;102464.06;;;19.55;68.58
17936;BME280;9093;52.062;4.508;2022-07-22T07:52:44;102463.09;;;19.56;69.27
17936;BME280;9093;52.062;4.508;2022-07-22T07:55:27;102455.84;;;19.56;68.72
17936;BME280;9093;52.062;4.508;2022-07-22T07:58:08;102452.06;;;19.59;68.88
17936;BME280;9093;52.062;4.508;2022-07-22T08:00:48;102450.00;;;19.62;68.73
17936;BME280;9093;52.062;4.508;2022-07-22T08:03:28;102450.56;;;19.67;68.34
17936;BME280;9093;52.062;4.508;2022-07-22T08:06:09;102454.84;;;19.72;68.68
17936;BME280;9093;52.062;4.508;2022-07-22T08:08:49;102445.50;;;19.76;68.49
17936;BME280;9093;52.062;4.508;2022-07-22T08:11:29;102446.06;;;19.81;68.35
17936;BME280;9093;52.062;4.508;2022-07-22T08:14:10;102450.19;;;19.86;67.94
17936;BME280;9093;52.062;4.508;2022-07-22T08:16:50;102450.88;;;19.90;67.59
17936;BME280;9093;52.062;4.508;2022-07-22T08:19:31;102445.38;;;19.91;68.08
17936;BME280;9093;52.062;4.508;2022-07-22T08:22:11;102437.00;;;19.94;67.56
17936;BME280;9093;52.062;4.508;2022-07-22T08:24:51;102437.88;;;19.95;67.59
17936;BME280;9093;52.062;4.508;2022-07-22T08:27:34;102443.09;;;19.98;67.54
17936;BME280;9093;52.062;4.508;2022-07-22T08:30:15;102438.53;;;19.98;67.20
17936;BME280;9093;52.062;4.508;2022-07-22T08:32:56;102439.31;;;20.00;66.70
17936;BME280;9093;52.062;4.508;2022-07-22T08:35:37;102429.22;;;20.02;67.63
17936;BME280;9093;52.062;4.508;2022-07-22T08:38:17;102431.94;;;20.02;66.85
17936;BME280;9093;52.062;4.508;2022-07-22T08:40:58;102430.75;;;20.06;66.83
17936;BME280;9093;52.062;4.508;2022-07-22T08:43:41;102434.00;;;20.12;67.20
17936;BME280;9093;52.062;4.508;2022-07-22T08:46:22;102431.09;;;20.15;66.86
17936;BME280;9093;52.062;4.508;2022-07-22T08:49:02;102440.75;;;20.19;66.69
17936;BME280;9093;52.062;4.508;2022-07-22T08:51:43;102435.13;;;20.22;66.74
17936;BME280;9093;52.062;4.508;2022-07-22T08:54:23;102425.16;;;20.22;66.40
17936;BME280;9093;52.062;4.508;2022-07-22T08:57:04;102420.59;;;20.23;66.13
17936;BME280;9093;52.062;4.508;2022-07-22T08:59:52;102426.03;;;20.23;66.00
17936;BME280;9093;52.062;4.508;2022-07-22T09:02:37;102429.47;;;20.25;66.71
17936;BME280;9093;52.062;4.508;2022-07-22T09:05:18;102430.78;;;20.32;66.60
17936;BME280;9093;52.062;4.508;2022-07-22T09:07:59;102430.63;;;20.35;65.89
17936;BME280;9093;52.062;4.508;2022-07-22T09:10:40;102419.53;;;20.38;65.83
17936;BME280;9093;52.062;4.508;2022-07-22T09:13:22;102422.78;;;20.43;65.45
17936;BME280;9093;52.062;4.508;2022-07-22T09:16:03;102417.38;;;20.43;65.41
17936;BME280;9093;52.062;4.508;2022-07-22T09:18:52;102408.06;;;20.47;65.31
17936;BME280;9093;52.062;4.508;2022-07-22T09:21:35;102403.25;;;20.51;64.60
17936;BME280;9093;52.062;4.508;2022-07-22T09:24:30;102397.19;;;20.47;64.67
17936;BME280;9093;52.062;4.508;2022-07-22T09:27:22;102401.75;;;20.46;64.79
17936;BME280;9093;52.062;4.508;2022-07-22T09:30:02;102422.25;;;20.51;64.02
17936;BME280;9093;52.062;4.508;2022-07-22T09:32:43;102432.47;;;20.47;63.81
17936;BME280;9093;52.062;4.508;2022-07-22T09:35:24;102429.31;;;20.40;64.08
17936;BME280;9093;52.062;4.508;2022-07-22T09:38:07;102429.50;;;20.37;63.76
17936;BME280;9093;52.062;4.508;2022-07-22T09:40:48;102423.22;;;20.37;64.07
17936;BME280;9093;52.062;4.508;2022-07-22T09:43:35;102421.50;;;20.36;63.76
17936;BME280;9093;52.062;4.508;2022-07-22T09:46:16;102429.41;;;20.39;63.97
17936;BME280;9093;52.062;4.508;2022-07-22T09:48:56;102427.69;;;20.38;63.77
17936;BME280;9093;52.062;4.508;2022-07-22T09:51:37;102435.72;;;20.39;63.64
17936;BME280;9093;52.062;4.508;2022-07-22T09:54:18;102436.34;;;20.43;64.10
17936;BME280;9093;52.062;4.508;2022-07-22T09:56:58;102437.81;;;20.49;63.75
17936;BME280;9093;52.062;4.508;2022-07-22T09:59:39;102423.91;;;20.53;63.87
17936;BME280;9093;52.062;4.508;2022-07-22T10:02:19;102443.63;;;20.55;63.46
17936;BME280;9093;52.062;4.508;2022-07-22T10:05:00;102434.75;;;20.53;63.36
17936;BME280;9093;52.062;4.508;2022-07-22T10:07:41;102432.78;;;20.55;63.31
17936;BME280;9093;52.062;4.508;2022-07-22T10:10:24;102437.03;;;20.59;63.23
17936;BME280;9093;52.062;4.508;2022-07-22T10:13:06;102437.56;;;20.64;62.84
17936;BME280;9093;52.062;4.508;2022-07-22T10:15:47;102438.09;;;20.69;62.90
17936;BME280;9093;52.062;4.508;2022-07-22T10:18:28;102434.31;;;20.72;62.51
17936;BME280;9093;52.062;4.508;2022-07-22T10:21:10;102435.72;;;20.77;63.42
17936;BME280;9093;52.062;4.508;2022-07-22T10:24:11;102437.47;;;20.78;63.10
17936;BME280;9093;52.062;4.508;2022-07-22T10:26:54;102439.75;;;20.84;63.10
17936;BME280;9093;52.062;4.508;2022-07-22T10:29:39;102440.47;;;20.86;62.50
17936;BME280;9093;52.062;4.508;2022-07-22T10:37:43;102446.66;;;20.88;62.47
17936;BME280;9093;52.062;4.508;2022-07-22T10:40:27;102457.53;;;20.88;61.89
17936;BME280;9093;52.062;4.508;2022-07-22T10:43:09;102450.16;;;20.91;61.83
17936;BME280;9093;52.062;4.508;2022-07-22T10:45:51;102450.16;;;20.91;62.10
17936;BME280;9093;52.062;4.508;2022-07-22T10:51:14;102435.69;;;21.03;62.10
17936;BME280;9093;52.062;4.508;2022-07-22T10:53:57;102427.72;;;21.12;61.72
17936;BME280;9093;52.062;4.508;2022-07-22T10:56:38;102417.63;;;21.14;61.67
17936;BME280;9093;52.062;4.508;2022-07-22T10:59:19;102419.91;;;21.20;61.74
17936;BME280;9093;52.062;4.508;2022-07-22T11:02:01;102401.84;;;21.32;62.02
17936;BME280;9093;52.062;4.508;2022-07-22T11:04:41;102394.97;;;21.39;61.15
17936;BME280;9093;52.062;4.508;2022-07-22T11:07:23;102404.88;;;21.40;60.95
17936;BME280;9093;52.062;4.508;2022-07-22T11:10:13;102410.75;;;21.34;60.73
17936;BME280;9093;52.062;4.508;2022-07-22T11:12:54;102403.56;;;21.33;60.73
17936;BME280;9093;52.062;4.508;2022-07-22T11:15:34;102396.88;;;21.26;60.49
17936;BME280;9093;52.062;4.508;2022-07-22T11:18:14;102393.94;;;21.29;61.09
17936;BME280;9093;52.062;4.508;2022-07-22T11:20:55;102395.31;;;21.35;60.49
17936;BME280;9093;52.062;4.508;2022-07-22T11:23:40;102396.72;;;21.40;60.55
17936;BME280;9093;52.062;4.508;2022-07-22T11:31:58;102402.72;;;21.33;60.37
17936;BME280;9093;52.062;4.508;2022-07-22T11:34:43;102401.84;;;21.32;59.62
17936;BME280;9093;52.062;4.508;2022-07-22T11:37:27;102387.28;;;21.33;59.94
17936;BME280;9093;52.062;4.508;2022-07-22T11:40:09;102382.50;;;21.37;60.45
17936;BME280;9093;52.062;4.508;2022-07-22T11:43:03;102382.59;;;21.35;60.28
17936;BME280;9093;52.062;4.508;2022-07-22T11:45:56;102371.16;;;21.43;59.90
17936;BME280;9093;52.062;4.508;2022-07-22T11:48:37;102356.25;;;21.48;60.47
17936;BME280;9093;52.062;4.508;2022-07-22T11:51:17;102349.13;;;21.58;59.63
17936;BME280;9093;52.062;4.508;2022-07-22T11:53:58;102339.09;;;21.59;59.21
17936;BME280;9093;52.062;4.508;2022-07-22T11:56:39;102343.69;;;21.58;59.42
17936;BME280;9093;52.062;4.508;2022-07-22T11:59:20;102339.72;;;21.62;59.00
17936;BME280;9093;52.062;4.508;2022-07-22T12:02:01;102345.81;;;21.66;59.25
17936;BME280;9093;52.062;4.508;2022-07-22T12:04:42;102353.25;;;21.75;58.88
17936;BME280;9093;52.062;4.508;2022-07-22T12:07:25;102360.72;;;21.84;58.78
17936;BME280;9093;52.062;4.508;2022-07-22T12:10:06;102363.06;;;21.89;58.73
17936;BME280;9093;52.062;4.508;2022-07-22T12:12:48;102353.25;;;21.99;59.05
17936;BME280;9093;52.062;4.508;2022-07-22T12:15:28;102366.13;;;22.08;58.35
17936;BME280;9093;52.062;4.508;2022-07-22T12:18:20;102366.97;;;22.09;58.79
17936;BME280;9093;52.062;4.508;2022-07-22T12:21:05;102355.72;;;22.13;58.52
17936;BME280;9093;52.062;4.508;2022-07-22T12:24:06;102355.50;;;22.16;58.92
17936;BME280;9093;52.062;4.508;2022-07-22T12:26:48;102352.78;;;22.27;58.47
17936;BME280;9093;52.062;4.508;2022-07-22T12:35:03;102356.53;;;22.60;57.00
17936;BME280;9093;52.062;4.508;2022-07-22T12:37:46;102346.63;;;22.59;56.60
17936;BME280;9093;52.062;4.508;2022-07-22T12:40:26;102351.09;;;22.60;57.26
17936;BME280;9093;52.062;4.508;2022-07-22T12:43:08;102350.38;;;22.69;56.79
17936;BME280;9093;52.062;4.508;2022-07-22T12:45:48;102338.00;;;22.76;56.79
17936;BME280;9093;52.062;4.508;2022-07-22T12:48:29;102346.66;;;22.81;56.74
17936;BME280;9093;52.062;4.508;2022-07-22T12:51:10;102344.16;;;22.89;56.90
17936;BME280;9093;52.062;4.508;2022-07-22T12:53:50;102332.13;;;23.03;56.12
17936;BME280;9093;52.062;4.508;2022-07-22T12:56:31;102332.13;;;23.14;56.16
17936;BME280;9093;52.062;4.508;2022-07-22T12:59:13;102338.00;;;23.30;56.37
17936;BME280;9093;52.062;4.508;2022-07-22T13:01:53;102336.84;;;23.44;55.79
17936;BME280;9093;52.062;4.508;2022-07-22T13:04:34;102344.03;;;23.56;56.00
17936;BME280;9093;52.062;4.508;2022-07-22T13:07:14;102344.97;;;23.66;55.50
17936;BME280;9093;52.062;4.508;2022-07-22T13:09:54;102340.25;;;23.68;55.75
17936;BME280;9093;52.062;4.508;2022-07-22T13:12:34;102338.91;;;23.62;55.67
17936;BME280;9093;52.062;4.508;2022-07-22T13:15:15;102340.03;;;23.60;55.42
17936;BME280;9093;52.062;4.508;2022-07-22T13:17:55;102337.94;;;23.52;55.08
17936;BME280;9093;52.062;4.508;2022-07-22T13:20:36;102348.47;;;23.46;54.80
17936;BME280;9093;52.062;4.508;2022-07-22T13:23:16;102348.00;;;23.41;55.60
17936;BME280;9093;52.062;4.508;2022-07-22T13:25:56;102342.72;;;23.39;55.21
17936;BME280;9093;52.062;4.508;2022-07-22T13:28:37;102337.78;;;23.33;55.32
17936;BME280;9093;52.062;4.508;2022-07-22T13:31:18;102340.00;;;23.28;55.22
17936;BME280;9093;52.062;4.508;2022-07-22T13:33:58;102342.25;;;23.23;54.56
17936;BME280;9093;52.062;4.508;2022-07-22T13:36:39;102346.34;;;23.17;54.95
17936;BME280;9093;52.062;4.508;2022-07-22T13:39:19;102325.53;;;23.16;55.33
17936;BME280;9093;52.062;4.508;2022-07-22T13:41:59;102324.31;;;23.20;54.68
17936;BME280;9093;52.062;4.508;2022-07-22T13:44:40;102317.84;;;23.21;54.08
17936;BME280;9093;52.062;4.508;2022-07-22T13:47:20;102318.00;;;23.20;54.11
17936;BME280;9093;52.062;4.508;2022-07-22T13:50:01;102320.88;;;23.07;54.42
17936;BME280;9093;52.062;4.508;2022-07-22T13:52:41;102339.72;;;22.99;54.00
17936;BME280;9093;52.062;4.508;2022-07-22T13:55:21;102342.47;;;22.88;54.33
17936;BME280;9093;52.062;4.508;2022-07-22T13:58:02;102337.25;;;22.85;54.49
17936;BME280;9093;52.062;4.508;2022-07-22T14:00:42;102329.81;;;22.87;54.57
17936;BME280;9093;52.062;4.508;2022-07-22T14:03:22;102316.69;;;22.92;54.56
17936;BME280;9093;52.062;4.508;2022-07-22T14:06:04;102316.69;;;22.92;54.08
17936;BME280;9093;52.062;4.508;2022-07-22T14:08:44;102304.06;;;22.91;54.05
17936;BME280;9093;52.062;4.508;2022-07-22T14:11:25;102294.03;;;22.92;54.21
17936;BME280;9093;52.062;4.508;2022-07-22T14:14:05;102318.16;;;22.96;54.33
17936;BME280;9093;52.062;4.508;2022-07-22T14:16:46;102312.19;;;23.02;54.57
17936;BME280;9093;52.062;4.508;2022-07-22T14:19:27;102300.53;;;23.11;54.50
17936;BME280;9093;52.062;4.508;2022-07-22T14:22:08;102326.00;;;23.21;54.66
17936;BME280;9093;52.062;4.508;2022-07-22T14:24:48;102320.44;;;23.23;54.61
17936;BME280;9093;52.062;4.508;2022-07-22T14:27:28;102328.38;;;23.26;54.88
17936;BME280;9093;52.062;4.508;2022-07-22T14:30:09;102323.63;;;23.28;54.40
17936;BME280;9093;52.062;4.508;2022-07-22T14:32:49;102331.44;;;23.33;54.75